Terminal Aerodrome Forecast
Issued by NWS

Home | Current Version | Previous Version | Text Only | Print | Product List | Glossary On
Versions: 1 2 3 4 5 6 7 8 9 10 11 12 13
000
FTUS45 KREV 271100
TAFMMH
TAF
KMMH 271139Z 2712/2812 32010KT P6SM SCT070
     FM271800 26015G25KT P6SM BKN100
     FM280100 25010KT 5SM -SHSN BKN025 OVC040=

USA.gov is the U.S. government's official web portal to all federal, state and local government web resources and services.